Nearby METAR Reports

 

KBGR - Bangor, Maine, USA
Distance from station: E 5mi, 8km
Updated: Thu, 18-Aug-2022 8:53pm EDT
Mostly cloudy
Mostly cloudy
 Wind from WSW
Wind: WSW 6 mph , 9 km/h
Temperature: 66°F , 19°C
Dew Point: 63°F , 17°C
Humidity: 88%
Barometer: 29.74 inHg , 1007.1 hPa
Clouds: Mostly cloudy
Visibility: 10 miles , 16 km
Cloud details: Mostly cloudy 2600 ft
Mostly cloudy 7000 ft
2022/08/19 00:53 KBGR 190053Z 24005KT 10SM BKN026 BKN070 19/17 A2974 RMK AO2 SLP067 T01890172 $
KBHB - Bar Harbor, Maine, USA
Distance from station: SE 37mi, 59km
Updated: Thu, 18-Aug-2022 9:15pm EDT
Overcast
Overcast
 Wind from SW
Wind: SW 5 mph , 7 km/h
Temperature: 64°F , 18°C
Dew Point: 61°F , 16°C
Humidity: 88%
Barometer: 29.76 inHg , 1007.8 hPa
Clouds: Overcast
Visibility: 10 miles , 16 km
Cloud details: Mostly cloudy 2700 ft
Overcast 8500 ft
2022/08/19 01:15 KBHB 190115Z AUTO 22004KT 10SM BKN027 OVC085 18/16 A2976 RMK AO2 PNO $
 
KAUG - Augusta, Maine, USA
Distance from station: SW 55mi, 89km
Updated: Thu, 18-Aug-2022 8:53pm EDT
Partly cloudy
Partly cloudy
 Wind from WSW
Wind: WSW 6 mph , 9 km/h
Temperature: 64°F , 18°C
Dew Point: 57°F , 14°C
Humidity: 78%
Barometer: 29.79 inHg , 1008.8 hPa
Clouds: Partly cloudy
Visibility: 10 miles , 16 km
Cloud details: Partly cloudy 8500 ft
2022/08/19 00:53 KAUG 190053Z AUTO 25005KT 10SM SCT085 18/14 A2979 RMK AO2 SLP086 T01830144
KGNR - Greenville, Maine, USA
Distance from station: NW 55mi, 89km
Updated: Thu, 18-Aug-2022 8:56pm EDT

 Wind from NW
Wind: NW 8 mph , 13 km/h
Temperature: 63°F , 17°C
Dew Point: 61°F , 16°C
Humidity: 94%
Barometer: 29.74 inHg , 1007.1 hPa
2022/08/19 00:56 KGNR 190056Z AUTO 31007KT 17/16 A2974 RMK AO1 SLP069 T01670161
 
KMLT - Millinocket, Maine, USA
Distance from station: N 59mi, 95km
Updated: Thu, 18-Aug-2022 9:21pm EDT
Overcast
Overcast
 Wind from calm
Wind: Calm
Temperature: 64°F , 18°C
Dew Point: 64°F , 18°C
Humidity: 100%
Barometer: 29.73 inHg , 1006.8 hPa
Clouds: Overcast
Visibility: 10 miles , 16 km
Cloud details: Mostly cloudy 600 ft
Mostly cloudy 1900 ft
Overcast 6000 ft
2022/08/19 01:21 KMLT 190121Z AUTO 00000KT 10SM BKN006 BKN019 OVC060 18/18 A2973 RMK AO2 T01780178
KLEW - Auburn/Lewiston, Maine, USA
Distance from station: SW 86mi, 138km
Updated: Thu, 18-Aug-2022 8:56pm EDT
Overcast
Overcast
 Wind from W
Wind: W 3 mph , 6 km/h
Temperature: 64°F , 18°C
Dew Point: 61°F , 16°C
Humidity: 88%
Barometer: 29.81 inHg , 1009.5 hPa
Clouds: Overcast
Visibility: 10 miles , 16 km
Cloud details: Overcast 6500 ft
2022/08/19 00:56 KLEW 190056Z AUTO 26003KT 10SM OVC065 18/16 A2981 RMK AO2 RAE45 SLP102 P0000 T01780156
 
KHUL - Houlton, Maine, USA
Distance from station: NNE 105mi, 169km
Updated: Thu, 18-Aug-2022 9:03pm EDT
Overcast
Overcast
 Wind from calm
Wind: Calm
Temperature: 63°F , 17°C
Dew Point: 61°F , 16°C
Humidity: 94%
Barometer: 29.71 inHg , 1006.1 hPa
Clouds: Overcast
Visibility: 10 miles , 16 km
Cloud details: Mostly cloudy 700 ft
Mostly cloudy 1200 ft
Overcast 3000 ft
2022/08/19 01:03 KHUL 190103Z AUTO 00000KT 10SM BKN007 BKN012 OVC030 17/16 A2971 RMK AO2 T01670156
KPWM - Portland, Maine, USA
Distance from station: SW 105mi, 170km
Updated: Thu, 18-Aug-2022 8:51pm EDT
Mostly cloudy
Mostly cloudy
 Wind from W
Wind: W 5 mph , 7 km/h
Temperature: 66°F , 19°C
Dew Point: 55°F , 13°C
Humidity: 68%
Barometer: 29.81 inHg , 1009.5 hPa
Clouds: Mostly cloudy
Visibility: 10 miles , 16 km
Cloud details: Mostly cloudy 10000 ft
2022/08/19 00:51 KPWM 190051Z 26004KT 10SM BKN100 19/13 A2981 RMK AO2 SLP095 T01940128 $
 
KBML - Berlin, New Hampshire, USA
Distance from station: W 113mi, 181km
Updated: Thu, 18-Aug-2022 9:32pm EDT
Overcast
Overcast
 Wind from calm
Wind: Calm
Temperature: 63°F , 17°C
Dew Point: 55°F , 13°C
Humidity: 77%
Barometer: 29.86 inHg , 1011.2 hPa
Clouds: Overcast
Visibility: 10 miles , 16 km
Cloud details: Overcast 1500 ft
2022/08/19 01:32 KBML 190132Z AUTO 00000KT 10SM OVC015 17/13 A2986 RMK AO2 T01670133
KIZG - Fryeburg, Maine, USA
Distance from station: WSW 116mi, 186km
Updated: Thu, 18-Aug-2022 8:54pm EDT
Overcast
Overcast
 Wind from varies
Wind: varies 5 mph , 7 km/h
Temperature: 64°F , 18°C
Dew Point: 55°F , 13°C
Humidity: 73%
Barometer: 29.83 inHg , 1010.2 hPa
Clouds: Overcast
Visibility: 10 miles , 16 km
Cloud details: Mostly cloudy 8000 ft
Overcast 9500 ft
2022/08/19 00:54 KIZG 190054Z AUTO VRB04KT 10SM BKN080 OVC095 18/13 A2983 RMK AO2 RAE09 SLP101 P0001 T01830128
 
KMWN - Mount Washington, New Hampshire, USA
Distance from station: WSW 123mi, 198km
Updated: Thu, 18-Aug-2022 8:48pm EDT
Drizzle, Fog, Overcast
Drizzle, Fog, Overcast
 Wind from WNW
Wind: WNW 59 mph , 94 km/h, Gust: 64 mph , 104 km/h
Temperature: 43°F , 6°C
Wind Chill: 29°F , -2°C
Dew Point: 43°F , 6°C
Humidity: 100%
Summary: Drizzle, Fog
Clouds: Overcast
Visibility: 0 miles , 0 km
Cloud details: Overcast 0 ft
2022/08/19 00:48 KMWN 190048Z 30051G56KT 0SM DZ FG VV000 06/06 RMK
KCAR - Caribou, Maine, USA
Distance from station: NNE 148mi, 238km
Updated: Thu, 18-Aug-2022 9:22pm EDT
Overcast
Overcast
 Wind from calm
Wind: Calm
Temperature: 63°F , 17°C
Dew Point: 59°F , 15°C
Humidity: 88%
Barometer: 29.72 inHg , 1006.4 hPa
Clouds: Overcast
Visibility: 10 miles , 16 km
Cloud details: Few Clouds 800 ft
Overcast 1300 ft
2022/08/19 01:22 KCAR 190122Z AUTO 00000KT 10SM FEW008 OVC013 17/15 A2972 RMK AO2 T01670150